sensor_id;sensor_type;location;lat;lon;timestamp;temperature;humidity
38265;DHT22;24062;47.480;8.768;2023-03-11T00:01:09;4.80;72.60
38265;DHT22;24062;47.480;8.768;2023-03-11T00:03:38;4.80;72.40
38265;DHT22;24062;47.480;8.768;2023-03-11T00:06:05;4.80;71.90
38265;DHT22;24062;47.480;8.768;2023-03-11T00:08:32;4.80;71.60
38265;DHT22;24062;47.480;8.768;2023-03-11T00:10:59;4.70;71.70
38265;DHT22;24062;47.480;8.768;2023-03-11T00:13:28;4.70;71.80
38265;DHT22;24062;47.480;8.768;2023-03-11T00:15:56;4.70;71.40
38265;DHT22;24062;47.480;8.768;2023-03-11T00:18:24;4.70;71.20
38265;DHT22;24062;47.480;8.768;2023-03-11T00:20:55;4.70;71.30
38265;DHT22;24062;47.480;8.768;2023-03-11T00:23:22;4.60;71.90
38265;DHT22;24062;47.480;8.768;2023-03-11T00:25:49;4.60;71.40
38265;DHT22;24062;47.480;8.768;2023-03-11T00:28:17;4.60;71.80
38265;DHT22;24062;47.480;8.768;2023-03-11T00:30:46;4.60;72.00
38265;DHT22;24062;47.480;8.768;2023-03-11T00:33:14;4.60;71.90
38265;DHT22;24062;47.480;8.768;2023-03-11T00:35:42;4.60;72.00
38265;DHT22;24062;47.480;8.768;2023-03-11T00:38:13;4.60;71.70
38265;DHT22;24062;47.480;8.768;2023-03-11T00:40:42;4.50;71.70
38265;DHT22;24062;47.480;8.768;2023-03-11T00:43:09;4.50;71.50
38265;DHT22;24062;47.480;8.768;2023-03-11T00:45:36;4.40;71.90
38265;DHT22;24062;47.480;8.768;2023-03-11T00:48:04;4.40;72.00
38265;DHT22;24062;47.480;8.768;2023-03-11T00:50:32;4.40;72.40
38265;DHT22;24062;47.480;8.768;2023-03-11T00:53:00;4.50;72.40
38265;DHT22;24062;47.480;8.768;2023-03-11T00:55:30;4.50;72.60
38265;DHT22;24062;47.480;8.768;2023-03-11T00:58:00;4.50;72.50
38265;DHT22;24062;47.480;8.768;2023-03-11T01:00:28;4.50;73.00
38265;DHT22;24062;47.480;8.768;2023-03-11T01:02:56;4.50;72.50
38265;DHT22;24062;47.480;8.768;2023-03-11T01:05:25;4.50;72.90
38265;DHT22;24062;47.480;8.768;2023-03-11T01:07:53;4.40;72.50
38265;DHT22;24062;47.480;8.768;2023-03-11T01:10:20;4.40;72.70
38265;DHT22;24062;47.480;8.768;2023-03-11T01:12:48;4.40;72.80
38265;DHT22;24062;47.480;8.768;2023-03-11T01:15:18;4.30;72.60
38265;DHT22;24062;47.480;8.768;2023-03-11T01:17:45;4.30;73.10
38265;DHT22;24062;47.480;8.768;2023-03-11T01:20:13;4.30;73.10
38265;DHT22;24062;47.480;8.768;2023-03-11T01:22:40;4.30;73.20
38265;DHT22;24062;47.480;8.768;2023-03-11T01:25:09;4.20;73.00
38265;DHT22;24062;47.480;8.768;2023-03-11T01:27:36;4.10;73.30
38265;DHT22;24062;47.480;8.768;2023-03-11T01:30:06;4.20;73.60
38265;DHT22;24062;47.480;8.768;2023-03-11T01:32:33;4.20;73.40
38265;DHT22;24062;47.480;8.768;2023-03-11T01:35:00;4.20;73.70
38265;DHT22;24062;47.480;8.768;2023-03-11T01:37:27;4.20;73.30
38265;DHT22;24062;47.480;8.768;2023-03-11T01:39:54;4.20;73.60
38265;DHT22;24062;47.480;8.768;2023-03-11T01:42:21;4.20;73.80
38265;DHT22;24062;47.480;8.768;2023-03-11T01:44:47;4.20;73.60
38265;DHT22;24062;47.480;8.768;2023-03-11T01:47:34;4.10;73.30
38265;DHT22;24062;47.480;8.768;2023-03-11T01:50:03;4.10;73.50
38265;DHT22;24062;47.480;8.768;2023-03-11T01:52:30;4.00;73.30
38265;DHT22;24062;47.480;8.768;2023-03-11T01:54:57;4.00;73.70
38265;DHT22;24062;47.480;8.768;2023-03-11T01:57:24;4.00;74.10
38265;DHT22;24062;47.480;8.768;2023-03-11T01:59:53;4.10;75.20
38265;DHT22;24062;47.480;8.768;2023-03-11T02:02:25;4.20;74.60
38265;DHT22;24062;47.480;8.768;2023-03-11T02:04:56;4.20;73.90
38265;DHT22;24062;47.480;8.768;2023-03-11T02:07:24;4.20;74.10
38265;DHT22;24062;47.480;8.768;2023-03-11T02:09:51;4.10;74.30
38265;DHT22;24062;47.480;8.768;2023-03-11T02:12:18;4.10;74.30
38265;DHT22;24062;47.480;8.768;2023-03-11T02:14:47;4.10;74.30
38265;DHT22;24062;47.480;8.768;2023-03-11T02:17:15;4.10;74.30
38265;DHT22;24062;47.480;8.768;2023-03-11T02:19:58;4.10;74.20
38265;DHT22;24062;47.480;8.768;2023-03-11T02:22:29;4.10;74.50
38265;DHT22;24062;47.480;8.768;2023-03-11T02:25:02;4.00;74.40
38265;DHT22;24062;47.480;8.768;2023-03-11T02:27:33;3.90;74.40
38265;DHT22;24062;47.480;8.768;2023-03-11T02:30:02;3.90;74.80
38265;DHT22;24062;47.480;8.768;2023-03-11T02:32:29;3.90;75.10
38265;DHT22;24062;47.480;8.768;2023-03-11T02:34:56;3.90;75.10
38265;DHT22;24062;47.480;8.768;2023-03-11T02:37:23;4.00;74.90
38265;DHT22;24062;47.480;8.768;2023-03-11T02:39:53;3.90;74.80
38265;DHT22;24062;47.480;8.768;2023-03-11T02:42:24;3.90;75.20
38265;DHT22;24062;47.480;8.768;2023-03-11T02:44:56;4.00;75.60
38265;DHT22;24062;47.480;8.768;2023-03-11T02:47:25;4.00;75.10
38265;DHT22;24062;47.480;8.768;2023-03-11T02:49:53;3.90;75.10
38265;DHT22;24062;47.480;8.768;2023-03-11T02:52:22;4.00;75.10
38265;DHT22;24062;47.480;8.768;2023-03-11T02:54:50;3.90;75.20
38265;DHT22;24062;47.480;8.768;2023-03-11T02:57:17;3.90;75.50
38265;DHT22;24062;47.480;8.768;2023-03-11T02:59:44;3.90;75.40
38265;DHT22;24062;47.480;8.768;2023-03-11T03:02:13;3.90;75.40
38265;DHT22;24062;47.480;8.768;2023-03-11T03:04:40;3.90;75.30
38265;DHT22;24062;47.480;8.768;2023-03-11T03:07:07;3.80;75.40
38265;DHT22;24062;47.480;8.768;2023-03-11T03:09:35;3.70;75.60
38265;DHT22;24062;47.480;8.768;2023-03-11T03:12:02;3.70;75.80
38265;DHT22;24062;47.480;8.768;2023-03-11T03:14:30;3.70;76.10
38265;DHT22;24062;47.480;8.768;2023-03-11T03:16:57;3.80;76.00
38265;DHT22;24062;47.480;8.768;2023-03-11T03:19:26;3.80;76.00
38265;DHT22;24062;47.480;8.768;2023-03-11T03:21:53;3.80;76.10
38265;DHT22;24062;47.480;8.768;2023-03-11T03:24:20;3.80;76.00
38265;DHT22;24062;47.480;8.768;2023-03-11T03:26:46;3.70;76.00
38265;DHT22;24062;47.480;8.768;2023-03-11T03:29:13;3.70;76.20
38265;DHT22;24062;47.480;8.768;2023-03-11T03:31:40;3.70;76.30
38265;DHT22;24062;47.480;8.768;2023-03-11T03:34:07;3.80;76.80
38265;DHT22;24062;47.480;8.768;2023-03-11T03:36:36;3.80;76.70
38265;DHT22;24062;47.480;8.768;2023-03-11T03:39:03;3.90;76.60
38265;DHT22;24062;47.480;8.768;2023-03-11T03:41:31;3.80;76.50
38265;DHT22;24062;47.480;8.768;2023-03-11T03:43:58;3.90;76.70
38265;DHT22;24062;47.480;8.768;2023-03-11T03:46:25;4.00;76.90
38265;DHT22;24062;47.480;8.768;2023-03-11T03:48:52;4.00;77.10
38265;DHT22;24062;47.480;8.768;2023-03-11T03:51:18;4.10;77.20
38265;DHT22;24062;47.480;8.768;2023-03-11T03:53:47;4.10;77.10
38265;DHT22;24062;47.480;8.768;2023-03-11T03:56:15;4.00;76.40
38265;DHT22;24062;47.480;8.768;2023-03-11T03:58:42;3.90;76.60
38265;DHT22;24062;47.480;8.768;2023-03-11T04:01:10;3.80;76.80
38265;DHT22;24062;47.480;8.768;2023-03-11T04:03:37;3.80;77.60
38265;DHT22;24062;47.480;8.768;2023-03-11T04:06:05;3.90;78.00
38265;DHT22;24062;47.480;8.768;2023-03-11T04:08:33;3.80;77.30
38265;DHT22;24062;47.480;8.768;2023-03-11T04:11:01;3.70;77.90
38265;DHT22;24062;47.480;8.768;2023-03-11T04:13:28;3.70;78.10
38265;DHT22;24062;47.480;8.768;2023-03-11T04:15:55;3.70;77.90
38265;DHT22;24062;47.480;8.768;2023-03-11T04:18:22;3.50;77.90
38265;DHT22;24062;47.480;8.768;2023-03-11T04:20:49;3.40;78.10
38265;DHT22;24062;47.480;8.768;2023-03-11T04:23:16;3.30;78.20
38265;DHT22;24062;47.480;8.768;2023-03-11T04:25:43;3.30;79.00
38265;DHT22;24062;47.480;8.768;2023-03-11T04:28:11;3.30;79.10
38265;DHT22;24062;47.480;8.768;2023-03-11T04:30:38;3.20;79.10
38265;DHT22;24062;47.480;8.768;2023-03-11T04:33:05;3.20;79.30
38265;DHT22;24062;47.480;8.768;2023-03-11T04:35:32;3.20;79.70
38265;DHT22;24062;47.480;8.768;2023-03-11T04:38:00;3.20;79.30
38265;DHT22;24062;47.480;8.768;2023-03-11T04:40:27;3.20;79.90
38265;DHT22;24062;47.480;8.768;2023-03-11T04:42:54;3.20;80.00
38265;DHT22;24062;47.480;8.768;2023-03-11T04:45:22;3.20;80.20
38265;DHT22;24062;47.480;8.768;2023-03-11T04:47:49;3.30;80.30
38265;DHT22;24062;47.480;8.768;2023-03-11T04:50:17;3.30;80.60
38265;DHT22;24062;47.480;8.768;2023-03-11T04:52:45;3.30;80.60
38265;DHT22;24062;47.480;8.768;2023-03-11T04:55:12;3.30;80.60
38265;DHT22;24062;47.480;8.768;2023-03-11T04:57:40;3.30;80.70
38265;DHT22;24062;47.480;8.768;2023-03-11T05:00:09;3.30;80.90
38265;DHT22;24062;47.480;8.768;2023-03-11T05:02:39;3.40;80.90
38265;DHT22;24062;47.480;8.768;2023-03-11T05:05:07;3.40;81.00
38265;DHT22;24062;47.480;8.768;2023-03-11T05:07:35;3.30;80.40
38265;DHT22;24062;47.480;8.768;2023-03-11T05:10:02;3.20;80.20
38265;DHT22;24062;47.480;8.768;2023-03-11T05:12:29;3.00;80.30
38265;DHT22;24062;47.480;8.768;2023-03-11T05:14:56;3.00;80.90
38265;DHT22;24062;47.480;8.768;2023-03-11T05:17:23;2.90;81.20
38265;DHT22;24062;47.480;8.768;2023-03-11T05:19:51;2.80;81.20
38265;DHT22;24062;47.480;8.768;2023-03-11T05:22:19;2.80;81.60
38265;DHT22;24062;47.480;8.768;2023-03-11T05:24:46;2.70;81.70
38265;DHT22;24062;47.480;8.768;2023-03-11T05:27:14;2.70;82.00
38265;DHT22;24062;47.480;8.768;2023-03-11T05:29:42;2.70;82.20
38265;DHT22;24062;47.480;8.768;2023-03-11T05:32:10;2.60;81.90
38265;DHT22;24062;47.480;8.768;2023-03-11T05:34:37;2.60;82.20
38265;DHT22;24062;47.480;8.768;2023-03-11T05:37:05;2.60;82.60
38265;DHT22;24062;47.480;8.768;2023-03-11T05:39:33;2.60;82.70
38265;DHT22;24062;47.480;8.768;2023-03-11T05:42:02;2.50;82.90
38265;DHT22;24062;47.480;8.768;2023-03-11T05:44:29;2.50;83.10
38265;DHT22;24062;47.480;8.768;2023-03-11T05:46:56;2.50;83.40
38265;DHT22;24062;47.480;8.768;2023-03-11T05:49:23;2.50;83.40
38265;DHT22;24062;47.480;8.768;2023-03-11T05:51:50;2.50;83.60
38265;DHT22;24062;47.480;8.768;2023-03-11T05:54:20;2.50;83.60
38265;DHT22;24062;47.480;8.768;2023-03-11T05:56:47;2.60;84.10
38265;DHT22;24062;47.480;8.768;2023-03-11T05:59:14;2.60;83.80
38265;DHT22;24062;47.480;8.768;2023-03-11T06:01:42;2.60;83.80
38265;DHT22;24062;47.480;8.768;2023-03-11T06:04:09;2.60;84.00
38265;DHT22;24062;47.480;8.768;2023-03-11T06:06:37;2.50;84.20
38265;DHT22;24062;47.480;8.768;2023-03-11T06:09:04;2.60;84.30
38265;DHT22;24062;47.480;8.768;2023-03-11T06:11:33;2.60;84.50
38265;DHT22;24062;47.480;8.768;2023-03-11T06:14:00;2.70;84.80
38265;DHT22;24062;47.480;8.768;2023-03-11T06:16:26;2.70;84.60
38265;DHT22;24062;47.480;8.768;2023-03-11T06:18:53;2.60;84.40
38265;DHT22;24062;47.480;8.768;2023-03-11T06:21:22;2.60;84.30
38265;DHT22;24062;47.480;8.768;2023-03-11T06:23:51;2.50;84.60
38265;DHT22;24062;47.480;8.768;2023-03-11T06:26:19;2.50;85.60
38265;DHT22;24062;47.480;8.768;2023-03-11T06:28:49;2.60;86.10
38265;DHT22;24062;47.480;8.768;2023-03-11T06:31:18;2.70;86.10
38265;DHT22;24062;47.480;8.768;2023-03-11T06:33:46;2.80;86.20
38265;DHT22;24062;47.480;8.768;2023-03-11T06:36:14;2.80;85.80
38265;DHT22;24062;47.480;8.768;2023-03-11T06:38:41;2.80;85.40
38265;DHT22;24062;47.480;8.768;2023-03-11T06:41:09;2.80;85.70
38265;DHT22;24062;47.480;8.768;2023-03-11T06:43:36;2.80;85.70
38265;DHT22;24062;47.480;8.768;2023-03-11T06:46:09;2.70;85.40
38265;DHT22;24062;47.480;8.768;2023-03-11T06:48:36;2.70;85.80
38265;DHT22;24062;47.480;8.768;2023-03-11T06:51:03;2.70;85.10
38265;DHT22;24062;47.480;8.768;2023-03-11T06:53:30;2.60;85.80
38265;DHT22;24062;47.480;8.768;2023-03-11T06:55:59;2.60;86.40
38265;DHT22;24062;47.480;8.768;2023-03-11T06:58:26;2.70;86.40
38265;DHT22;24062;47.480;8.768;2023-03-11T07:00:53;2.70;86.30
38265;DHT22;24062;47.480;8.768;2023-03-11T07:03:22;2.80;87.00
38265;DHT22;24062;47.480;8.768;2023-03-11T07:05:50;2.90;87.20
38265;DHT22;24062;47.480;8.768;2023-03-11T07:08:17;2.90;86.30
38265;DHT22;24062;47.480;8.768;2023-03-11T07:10:44;2.90;85.90
38265;DHT22;24062;47.480;8.768;2023-03-11T07:13:13;2.90;85.00
38265;DHT22;24062;47.480;8.768;2023-03-11T07:15:40;2.80;85.10
38265;DHT22;24062;47.480;8.768;2023-03-11T07:18:06;2.70;86.00
38265;DHT22;24062;47.480;8.768;2023-03-11T07:20:35;2.80;86.40
38265;DHT22;24062;47.480;8.768;2023-03-11T07:23:02;2.90;86.30
38265;DHT22;24062;47.480;8.768;2023-03-11T07:25:28;2.90;86.50
38265;DHT22;24062;47.480;8.768;2023-03-11T07:27:55;3.00;86.70
38265;DHT22;24062;47.480;8.768;2023-03-11T07:30:22;3.10;86.40
38265;DHT22;24062;47.480;8.768;2023-03-11T07:32:49;3.10;85.20
38265;DHT22;24062;47.480;8.768;2023-03-11T07:35:16;3.20;85.80
38265;DHT22;24062;47.480;8.768;2023-03-11T07:37:44;3.10;85.10
38265;DHT22;24062;47.480;8.768;2023-03-11T07:40:12;3.10;85.30
38265;DHT22;24062;47.480;8.768;2023-03-11T07:42:39;3.10;85.60
38265;DHT22;24062;47.480;8.768;2023-03-11T07:45:07;3.10;85.30
38265;DHT22;24062;47.480;8.768;2023-03-11T07:47:34;3.10;85.10
38265;DHT22;24062;47.480;8.768;2023-03-11T07:50:01;3.10;85.70
38265;DHT22;24062;47.480;8.768;2023-03-11T07:52:29;3.10;85.70
38265;DHT22;24062;47.480;8.768;2023-03-11T07:54:58;3.10;85.80
38265;DHT22;24062;47.480;8.768;2023-03-11T07:57:25;3.10;85.70
38265;DHT22;24062;47.480;8.768;2023-03-11T07:59:52;3.10;85.70
38265;DHT22;24062;47.480;8.768;2023-03-11T08:02:19;3.10;86.00
38265;DHT22;24062;47.480;8.768;2023-03-11T08:04:45;3.10;85.70
38265;DHT22;24062;47.480;8.768;2023-03-11T08:07:12;3.20;86.50
38265;DHT22;24062;47.480;8.768;2023-03-11T08:09:39;3.30;86.90
38265;DHT22;24062;47.480;8.768;2023-03-11T08:12:08;3.40;86.50
38265;DHT22;24062;47.480;8.768;2023-03-11T08:14:35;3.40;85.30
38265;DHT22;24062;47.480;8.768;2023-03-11T08:17:04;3.30;85.40
38265;DHT22;24062;47.480;8.768;2023-03-11T08:19:31;3.30;85.30
38265;DHT22;24062;47.480;8.768;2023-03-11T08:22:00;3.30;85.60
38265;DHT22;24062;47.480;8.768;2023-03-11T08:24:27;3.30;85.40
38265;DHT22;24062;47.480;8.768;2023-03-11T08:26:54;3.30;85.40
38265;DHT22;24062;47.480;8.768;2023-03-11T08:29:23;3.20;85.00
38265;DHT22;24062;47.480;8.768;2023-03-11T08:31:50;3.20;85.60
38265;DHT22;24062;47.480;8.768;2023-03-11T08:34:17;3.20;85.90
38265;DHT22;24062;47.480;8.768;2023-03-11T08:36:45;3.20;85.90
38265;DHT22;24062;47.480;8.768;2023-03-11T08:39:12;3.20;85.20
38265;DHT22;24062;47.480;8.768;2023-03-11T08:41:39;3.10;84.50
38265;DHT22;24062;47.480;8.768;2023-03-11T08:44:06;3.00;85.40
38265;DHT22;24062;47.480;8.768;2023-03-11T08:46:36;3.00;85.90
38265;DHT22;24062;47.480;8.768;2023-03-11T08:49:04;3.10;86.70
38265;DHT22;24062;47.480;8.768;2023-03-11T08:51:33;3.20;86.10
38265;DHT22;24062;47.480;8.768;2023-03-11T08:54:00;3.10;85.60
38265;DHT22;24062;47.480;8.768;2023-03-11T08:56:27;3.10;86.30
38265;DHT22;24062;47.480;8.768;2023-03-11T08:58:54;3.20;86.00
38265;DHT22;24062;47.480;8.768;2023-03-11T09:01:21;3.20;85.80
38265;DHT22;24062;47.480;8.768;2023-03-11T09:03:50;3.20;86.10
38265;DHT22;24062;47.480;8.768;2023-03-11T09:06:17;3.30;85.90
38265;DHT22;24062;47.480;8.768;2023-03-11T09:08:45;3.30;85.60
38265;DHT22;24062;47.480;8.768;2023-03-11T09:11:13;3.40;86.00
38265;DHT22;24062;47.480;8.768;2023-03-11T09:13:40;3.40;86.40
38265;DHT22;24062;47.480;8.768;2023-03-11T09:16:08;3.60;87.10
38265;DHT22;24062;47.480;8.768;2023-03-11T09:18:35;3.90;86.30
38265;DHT22;24062;47.480;8.768;2023-03-11T09:21:03;4.00;86.50
38265;DHT22;24062;47.480;8.768;2023-03-11T09:23:31;4.10;85.40
38265;DHT22;24062;47.480;8.768;2023-03-11T09:25:57;4.20;85.90
38265;DHT22;24062;47.480;8.768;2023-03-11T09:28:24;4.20;85.50
38265;DHT22;24062;47.480;8.768;2023-03-11T09:30:51;4.30;84.90
38265;DHT22;24062;47.480;8.768;2023-03-11T09:33:18;4.20;84.20
38265;DHT22;24062;47.480;8.768;2023-03-11T09:35:45;4.10;84.70
38265;DHT22;24062;47.480;8.768;2023-03-11T09:38:14;4.20;84.90
38265;DHT22;24062;47.480;8.768;2023-03-11T09:40:50;4.10;85.30
38265;DHT22;24062;47.480;8.768;2023-03-11T09:43:28;4.10;84.60
38265;DHT22;24062;47.480;8.768;2023-03-11T09:46:05;4.00;83.80
38265;DHT22;24062;47.480;8.768;2023-03-11T09:48:37;4.00;84.20
38265;DHT22;24062;47.480;8.768;2023-03-11T09:51:11;3.90;85.10
38265;DHT22;24062;47.480;8.768;2023-03-11T09:53:43;4.00;84.10
38265;DHT22;24062;47.480;8.768;2023-03-11T09:56:12;3.90;84.60
38265;DHT22;24062;47.480;8.768;2023-03-11T09:58:43;3.90;83.90
38265;DHT22;24062;47.480;8.768;2023-03-11T10:01:15;4.00;84.10
38265;DHT22;24062;47.480;8.768;2023-03-11T10:03:46;4.10;85.00
38265;DHT22;24062;47.480;8.768;2023-03-11T10:06:15;4.20;84.40
38265;DHT22;24062;47.480;8.768;2023-03-11T10:08:46;4.40;84.30
38265;DHT22;24062;47.480;8.768;2023-03-11T10:14:07;4.80;84.00
38265;DHT22;24062;47.480;8.768;2023-03-11T10:16:42;5.00;85.10
38265;DHT22;24062;47.480;8.768;2023-03-11T10:19:20;5.10;83.40
38265;DHT22;24062;47.480;8.768;2023-03-11T10:21:58;5.10;82.20
38265;DHT22;24062;47.480;8.768;2023-03-11T10:24:43;5.00;82.00
38265;DHT22;24062;47.480;8.768;2023-03-11T10:27:15;5.20;84.00
38265;DHT22;24062;47.480;8.768;2023-03-11T10:29:50;5.30;83.00
38265;DHT22;24062;47.480;8.768;2023-03-11T10:32:22;5.40;81.80
38265;DHT22;24062;47.480;8.768;2023-03-11T10:34:53;5.40;82.20
38265;DHT22;24062;47.480;8.768;2023-03-11T10:37:24;5.50;83.40
38265;DHT22;24062;47.480;8.768;2023-03-11T10:39:53;5.60;81.90
38265;DHT22;24062;47.480;8.768;2023-03-11T10:42:23;5.60;81.20
38265;DHT22;24062;47.480;8.768;2023-03-11T10:44:51;5.50;79.90
38265;DHT22;24062;47.480;8.768;2023-03-11T10:47:19;5.50;81.90
38265;DHT22;24062;47.480;8.768;2023-03-11T10:49:47;5.60;81.30
38265;DHT22;24062;47.480;8.768;2023-03-11T10:52:14;5.70;82.10
38265;DHT22;24062;47.480;8.768;2023-03-11T10:54:43;5.70;81.40
38265;DHT22;24062;47.480;8.768;2023-03-11T10:57:24;5.80;79.50
38265;DHT22;24062;47.480;8.768;2023-03-11T10:59:52;5.60;78.40
38265;DHT22;24062;47.480;8.768;2023-03-11T11:02:23;5.50;79.70
38265;DHT22;24062;47.480;8.768;2023-03-11T11:05:04;5.60;80.80
38265;DHT22;24062;47.480;8.768;2023-03-11T11:07:34;5.80;79.60
38265;DHT22;24062;47.480;8.768;2023-03-11T11:10:18;5.60;77.80
38265;DHT22;24062;47.480;8.768;2023-03-11T11:12:55;5.40;76.60
38265;DHT22;24062;47.480;8.768;2023-03-11T11:15:26;5.40;79.50
38265;DHT22;24062;47.480;8.768;2023-03-11T11:17:56;5.90;82.10
38265;DHT22;24062;47.480;8.768;2023-03-11T11:20:24;6.30;79.70
38265;DHT22;24062;47.480;8.768;2023-03-11T11:22:53;6.10;75.80
38265;DHT22;24062;47.480;8.768;2023-03-11T11:25:26;5.90;76.50
38265;DHT22;24062;47.480;8.768;2023-03-11T11:27:56;5.90;77.80
38265;DHT22;24062;47.480;8.768;2023-03-11T11:30:24;6.20;80.40
38265;DHT22;24062;47.480;8.768;2023-03-11T11:32:52;6.70;80.40
38265;DHT22;24062;47.480;8.768;2023-03-11T11:35:21;6.90;78.20
38265;DHT22;24062;47.480;8.768;2023-03-11T11:37:51;7.10;77.90
38265;DHT22;24062;47.480;8.768;2023-03-11T11:40:25;7.10;78.70
38265;DHT22;24062;47.480;8.768;2023-03-11T11:42:55;7.40;79.70
38265;DHT22;24062;47.480;8.768;2023-03-11T11:45:35;7.80;79.40
38265;DHT22;24062;47.480;8.768;2023-03-11T11:48:08;7.90;76.20
38265;DHT22;24062;47.480;8.768;2023-03-11T11:50:42;7.70;75.70
38265;DHT22;24062;47.480;8.768;2023-03-11T11:53:20;7.50;73.50
38265;DHT22;24062;47.480;8.768;2023-03-11T11:55:51;7.50;76.50
38265;DHT22;24062;47.480;8.768;2023-03-11T11:58:21;7.80;77.00
38265;DHT22;24062;47.480;8.768;2023-03-11T12:01:09;8.20;76.20
38265;DHT22;24062;47.480;8.768;2023-03-11T12:04:01;8.40;76.40
38265;DHT22;24062;47.480;8.768;2023-03-11T12:06:36;8.90;77.30
38265;DHT22;24062;47.480;8.768;2023-03-11T12:09:13;9.20;77.30
38265;DHT22;24062;47.480;8.768;2023-03-11T12:11:53;9.50;74.40
38265;DHT22;24062;47.480;8.768;2023-03-11T12:14:29;9.60;74.00
38265;DHT22;24062;47.480;8.768;2023-03-11T12:17:01;9.60;73.00
38265;DHT22;24062;47.480;8.768;2023-03-11T12:19:36;9.60;72.10
38265;DHT22;24062;47.480;8.768;2023-03-11T12:25:24;9.60;71.20
38265;DHT22;24062;47.480;8.768;2023-03-11T12:27:58;9.40;71.30
38265;DHT22;24062;47.480;8.768;2023-03-11T12:30:32;9.50;70.70
38265;DHT22;24062;47.480;8.768;2023-03-11T12:33:04;9.50;71.70
38265;DHT22;24062;47.480;8.768;2023-03-11T12:35:33;9.20;68.30
38265;DHT22;24062;47.480;8.768;2023-03-11T12:38:13;8.80;68.90
38265;DHT22;24062;47.480;8.768;2023-03-11T12:41:00;8.60;70.80
38265;DHT22;24062;47.480;8.768;2023-03-11T12:43:57;8.50;70.10
38265;DHT22;24062;47.480;8.768;2023-03-11T12:49:37;8.30;69.80
38265;DHT22;24062;47.480;8.768;2023-03-11T12:52:17;8.30;69.50
38265;DHT22;24062;47.480;8.768;2023-03-11T12:54:45;8.40;70.10
38265;DHT22;24062;47.480;8.768;2023-03-11T12:57:28;8.40;69.70
38265;DHT22;24062;47.480;8.768;2023-03-11T13:00:22;8.60;70.20
38265;DHT22;24062;47.480;8.768;2023-03-11T13:03:28;8.70;69.20
38265;DHT22;24062;47.480;8.768;2023-03-11T13:06:10;8.70;69.40
38265;DHT22;24062;47.480;8.768;2023-03-11T13:08:45;8.50;68.30
38265;DHT22;24062;47.480;8.768;2023-03-11T13:11:37;8.30;68.00
38265;DHT22;24062;47.480;8.768;2023-03-11T13:14:24;8.10;69.10
38265;DHT22;24062;47.480;8.768;2023-03-11T13:16:53;8.20;69.40
38265;DHT22;24062;47.480;8.768;2023-03-11T13:19:53;8.40;69.00
38265;DHT22;24062;47.480;8.768;2023-03-11T13:25:40;8.80;68.90
38265;DHT22;24062;47.480;8.768;2023-03-11T13:28:35;8.90;66.50
38265;DHT22;24062;47.480;8.768;2023-03-11T13:31:19;8.80;65.50
38265;DHT22;24062;47.480;8.768;2023-03-11T13:33:51;8.70;66.50
38265;DHT22;24062;47.480;8.768;2023-03-11T13:36:35;8.70;65.40
38265;DHT22;24062;47.480;8.768;2023-03-11T13:39:19;8.60;66.90
38265;DHT22;24062;47.480;8.768;2023-03-11T13:41:48;8.50;64.50
38265;DHT22;24062;47.480;8.768;2023-03-11T13:44:27;8.30;66.40
38265;DHT22;24062;47.480;8.768;2023-03-11T13:46:59;8.60;67.90
38265;DHT22;24062;47.480;8.768;2023-03-11T13:49:34;9.20;69.20
38265;DHT22;24062;47.480;8.768;2023-03-11T13:52:07;9.60;66.50
38265;DHT22;24062;47.480;8.768;2023-03-11T13:54:40;9.40;66.70
38265;DHT22;24062;47.480;8.768;2023-03-11T13:57:22;9.40;64.50
38265;DHT22;24062;47.480;8.768;2023-03-11T13:59:51;9.30;64.70
38265;DHT22;24062;47.480;8.768;2023-03-11T14:02:20;9.30;65.50
38265;DHT22;24062;47.480;8.768;2023-03-11T14:04:50;9.40;65.40
38265;DHT22;24062;47.480;8.768;2023-03-11T14:07:26;9.20;63.70
38265;DHT22;24062;47.480;8.768;2023-03-11T14:13:04;8.90;64.90
38265;DHT22;24062;47.480;8.768;2023-03-11T14:15:40;8.90;64.40
38265;DHT22;24062;47.480;8.768;2023-03-11T14:18:31;8.50;63.10
38265;DHT22;24062;47.480;8.768;2023-03-11T14:20:58;8.10;63.60
38265;DHT22;24062;47.480;8.768;2023-03-11T14:23:29;7.90;63.50
38265;DHT22;24062;47.480;8.768;2023-03-11T14:25:58;7.80;64.50
38265;DHT22;24062;47.480;8.768;2023-03-11T14:28:27;7.70;64.40
38265;DHT22;24062;47.480;8.768;2023-03-11T14:30:58;7.50;64.10
38265;DHT22;24062;47.480;8.768;2023-03-11T14:33:25;7.40;64.60
38265;DHT22;24062;47.480;8.768;2023-03-11T14:35:54;7.40;64.80
38265;DHT22;24062;47.480;8.768;2023-03-11T14:38:22;7.20;64.80
38265;DHT22;24062;47.480;8.768;2023-03-11T14:40:53;7.10;64.80
38265;DHT22;24062;47.480;8.768;2023-03-11T14:43:20;7.00;64.90
38265;DHT22;24062;47.480;8.768;2023-03-11T14:45:48;6.90;65.20
38265;DHT22;24062;47.480;8.768;2023-03-11T14:48:20;6.70;65.30
38265;DHT22;24062;47.480;8.768;2023-03-11T14:50:49;6.60;64.80
38265;DHT22;24062;47.480;8.768;2023-03-11T14:53:21;6.60;66.50
38265;DHT22;24062;47.480;8.768;2023-03-11T14:55:55;6.70;66.20
38265;DHT22;24062;47.480;8.768;2023-03-11T14:58:27;6.70;66.30
38265;DHT22;24062;47.480;8.768;2023-03-11T15:00:58;6.70;66.70
38265;DHT22;24062;47.480;8.768;2023-03-11T15:03:27;6.90;66.90
38265;DHT22;24062;47.480;8.768;2023-03-11T15:05:58;6.80;66.10
38265;DHT22;24062;47.480;8.768;2023-03-11T15:08:29;6.70;66.40
38265;DHT22;24062;47.480;8.768;2023-03-11T15:11:17;6.60;67.00
38265;DHT22;24062;47.480;8.768;2023-03-11T15:13:46;6.80;67.40
38265;DHT22;24062;47.480;8.768;2023-03-11T15:16:25;6.80;66.60
38265;DHT22;24062;47.480;8.768;2023-03-11T15:18:54;6.80;67.10
38265;DHT22;24062;47.480;8.768;2023-03-11T15:21:23;7.00;67.50
38265;DHT22;24062;47.480;8.768;2023-03-11T15:23:51;7.10;67.40
38265;DHT22;24062;47.480;8.768;2023-03-11T15:26:23;7.10;67.00
38265;DHT22;24062;47.480;8.768;2023-03-11T15:28:56;7.20;67.10
38265;DHT22;24062;47.480;8.768;2023-03-11T15:31:29;7.20;66.60
38265;DHT22;24062;47.480;8.768;2023-03-11T15:34:20;7.10;66.50
38265;DHT22;24062;47.480;8.768;2023-03-11T15:37:17;7.10;66.90
38265;DHT22;24062;47.480;8.768;2023-03-11T15:39:47;7.10;66.90
38265;DHT22;24062;47.480;8.768;2023-03-11T15:42:22;7.20;66.40
38265;DHT22;24062;47.480;8.768;2023-03-11T15:45:12;7.10;66.00
38265;DHT22;24062;47.480;8.768;2023-03-11T15:47:40;7.00;66.50
38265;DHT22;24062;47.480;8.768;2023-03-11T15:50:19;6.80;65.60
38265;DHT22;24062;47.480;8.768;2023-03-11T15:52:48;6.50;67.20
38265;DHT22;24062;47.480;8.768;2023-03-11T15:55:15;6.60;67.00
38265;DHT22;24062;47.480;8.768;2023-03-11T15:57:46;6.70;67.00
38265;DHT22;24062;47.480;8.768;2023-03-11T16:00:16;6.60;66.50
38265;DHT22;24062;47.480;8.768;2023-03-11T16:02:44;6.40;66.20
38265;DHT22;24062;47.480;8.768;2023-03-11T16:05:13;6.20;66.50
38265;DHT22;24062;47.480;8.768;2023-03-11T16:07:41;6.20;68.00
38265;DHT22;24062;47.480;8.768;2023-03-11T16:10:09;6.20;67.50
38265;DHT22;24062;47.480;8.768;2023-03-11T16:12:36;6.20;67.30
38265;DHT22;24062;47.480;8.768;2023-03-11T16:15:09;6.30;67.60
38265;DHT22;24062;47.480;8.768;2023-03-11T16:17:41;6.30;67.70
38265;DHT22;24062;47.480;8.768;2023-03-11T16:20:09;6.10;67.20